Time;durP1;ratioP1;P1;durP2;ratioP2;P2;SDS_P1;SDS_P2;PMS_P1;PMS_P2;Temp;Humidity;BMP_temperature;BMP_pressure;BME280_temperature;BME280_humidity;BME280_pressure;Samples;Min_cycle;Max_cycle;Signal;HPM_P1;HPM_P2
2021/12/13 00:01:22;;;;;;;;;;;3.80;99.90;;;;;;5109767;28;20203;-71
2021/12/13 00:03:51;;;;;;;;;;;3.80;99.90;;;;;;5119305;28;19927;-71
2021/12/13 00:06:23;;;;;;;;;;;3.80;99.90;;;;;;5105511;28;19988;-70
2021/12/13 00:08:52;;;;;;;;;;;3.90;99.90;;;;;;5105217;28;20234;-71
2021/12/13 00:11:20;;;;;;;;;;;3.90;99.90;;;;;;5105420;28;19942;-70
2021/12/13 00:13:48;;;;;;;;;;;3.90;99.90;;;;;;5104704;28;19920;-71
2021/12/13 00:16:16;;;;;;;;;;;3.90;99.90;;;;;;5105506;28;19943;-70
2021/12/13 00:18:44;;;;;;;;;;;3.80;99.90;;;;;;5105186;28;19920;-71
2021/12/13 00:21:12;;;;;;;;;;;3.90;99.90;;;;;;5104763;28;20227;-70
2021/12/13 00:23:45;;;;;;;;;;;3.80;99.90;;;;;;5104232;28;19920;-71
2021/12/13 00:26:20;;;;;;;;;;;3.90;99.90;;;;;;5104764;28;19920;-71
2021/12/13 00:28:47;;;;;;;;;;;3.80;99.90;;;;;;5105055;28;19958;-71
2021/12/13 00:31:31;;;;;;;;;;;3.80;99.90;;;;;;5105609;28;19920;-71
2021/12/13 00:34:04;;;;;;;;;;;3.80;99.90;;;;;;5103929;28;19926;-71
2021/12/13 00:39:06;;;;;;;;;;;3.90;99.90;;;;;;5101015;28;20140;-69
2021/12/13 00:41:35;;;;;;;;;;;3.80;99.90;;;;;;5104730;28;19927;-70
2021/12/13 00:44:03;;;;;;;;;;;3.80;99.90;;;;;;5090533;28;20226;-70
2021/12/13 00:46:30;;;;;;;;;;;3.80;99.90;;;;;;5104590;28;19993;-70
2021/12/13 00:48:58;;;;;;;;;;;3.80;99.90;;;;;;5064565;28;19924;-69
2021/12/13 00:51:27;;;;;;;;;;;3.80;99.90;;;;;;5067401;28;20238;-70
2021/12/13 00:53:54;;;;;;;;;;;3.80;99.90;;;;;;5084152;28;19974;-70
2021/12/13 00:56:39;;;;;;;;;;;3.80;99.90;;;;;;5084109;28;20222;-70
2021/12/13 00:59:08;;;;;;;;;;;3.80;99.90;;;;;;5084248;28;19920;-70
2021/12/13 01:01:35;;;;;;;;;;;3.80;99.90;;;;;;5084239;28;19920;-70
2021/12/13 01:04:04;;;;;;;;;;;3.80;99.90;;;;;;5083986;28;19921;-70
2021/12/13 01:06:54;;;;;;;;;;;3.90;99.90;;;;;;5084178;28;19920;-70
2021/12/13 01:09:39;;;;;;;;;;;3.80;99.90;;;;;;5063903;28;19920;-71
2021/12/13 01:12:07;;;;;;;;;;;3.90;99.90;;;;;;5072422;28;19920;-70
2021/12/13 01:14:56;;;;;;;;;;;3.90;99.90;;;;;;5083966;28;19920;-69
2021/12/13 01:17:36;;;;;;;;;;;3.90;99.90;;;;;;5083814;28;19920;-70
2021/12/13 01:20:07;;;;;;;;;;;3.80;99.90;;;;;;5084186;28;19920;-70
2021/12/13 01:22:45;;;;;;;;;;;3.80;99.90;;;;;;5084137;28;20170;-70
2021/12/13 01:25:19;;;;;;;;;;;3.80;99.90;;;;;;5083454;28;20270;-70
2021/12/13 01:27:48;;;;;;;;;;;3.80;99.90;;;;;;5078947;28;19988;-70
2021/12/13 01:30:18;;;;;;;;;;;3.80;99.90;;;;;;5075197;28;19921;-70
2021/12/13 01:32:47;;;;;;;;;;;3.80;99.90;;;;;;5079008;28;19926;-69
2021/12/13 01:35:14;;;;;;;;;;;3.80;99.90;;;;;;5079583;28;19927;-69
2021/12/13 01:37:41;;;;;;;;;;;3.80;99.90;;;;;;5078949;28;19962;-69
2021/12/13 01:40:10;;;;;;;;;;;3.80;99.90;;;;;;5076769;28;19963;-70
2021/12/13 01:42:37;;;;;;;;;;;3.90;99.90;;;;;;5080239;28;20215;-70
2021/12/13 01:45:08;;;;;;;;;;;3.90;99.90;;;;;;5083394;28;20115;-70
2021/12/13 01:47:42;;;;;;;;;;;3.80;99.90;;;;;;5083814;28;19928;-70
2021/12/13 01:50:16;;;;;;;;;;;3.80;99.90;;;;;;5083848;28;19928;-70
2021/12/13 01:52:43;;;;;;;;;;;3.80;99.90;;;;;;5083813;28;20054;-70
2021/12/13 01:55:12;;;;;;;;;;;3.80;99.90;;;;;;5083224;28;19927;-70
2021/12/13 01:57:46;;;;;;;;;;;3.80;99.90;;;;;;5083681;28;19927;-72
2021/12/13 02:00:18;;;;;;;;;;;3.80;99.90;;;;;;5084035;28;20195;-70
2021/12/13 02:03:01;;;;;;;;;;;3.80;99.90;;;;;;5079225;28;19920;-70
2021/12/13 02:05:29;;;;;;;;;;;3.90;99.90;;;;;;5073004;28;19920;-69
2021/12/13 02:07:57;;;;;;;;;;;3.90;99.90;;;;;;5063689;28;19925;-70
2021/12/13 02:10:26;;;;;;;;;;;3.90;99.90;;;;;;5083378;28;19924;-70
2021/12/13 02:12:57;;;;;;;;;;;3.90;99.90;;;;;;5065005;28;20165;-71
2021/12/13 02:18:26;;;;;;;;;;;4.00;99.90;;;;;;5001962;28;19961;-70
2021/12/13 02:21:02;;;;;;;;;;;3.90;99.90;;;;;;5002065;28;20209;-71
2021/12/13 02:23:31;;;;;;;;;;;3.90;99.90;;;;;;5033750;28;19921;-71
2021/12/13 02:25:58;;;;;;;;;;;3.90;99.90;;;;;;5067197;28;19924;-70
2021/12/13 02:28:26;;;;;;;;;;;3.90;99.90;;;;;;5086209;28;19920;-70
2021/12/13 02:30:54;;;;;;;;;;;3.90;99.90;;;;;;5084671;28;19927;-70
2021/12/13 02:33:22;;;;;;;;;;;3.90;99.90;;;;;;5081200;28;19927;-70
2021/12/13 02:35:54;;;;;;;;;;;3.90;99.90;;;;;;5086880;28;19920;-70
2021/12/13 02:38:23;;;;;;;;;;;3.90;99.90;;;;;;5086574;28;20115;-70
2021/12/13 02:40:51;;;;;;;;;;;4.00;99.90;;;;;;5079781;28;19927;-70
2021/12/13 02:43:19;;;;;;;;;;;3.90;99.90;;;;;;5077436;28;19920;-70
2021/12/13 02:45:48;;;;;;;;;;;3.90;99.90;;;;;;5072567;28;20119;-71
2021/12/13 02:48:17;;;;;;;;;;;3.90;99.90;;;;;;5066755;28;19920;-70
2021/12/13 02:50:46;;;;;;;;;;;3.90;99.90;;;;;;5066829;28;19924;-71
2021/12/13 02:53:14;;;;;;;;;;;3.90;99.90;;;;;;5066750;28;19982;-69
2021/12/13 02:55:41;;;;;;;;;;;4.00;99.90;;;;;;5066272;28;19921;-70
2021/12/13 02:58:11;;;;;;;;;;;4.00;99.90;;;;;;5071533;28;19920;-69
2021/12/13 03:00:44;;;;;;;;;;;4.10;99.90;;;;;;5086470;28;20215;-70
2021/12/13 03:03:12;;;;;;;;;;;4.10;99.90;;;;;;5066663;28;19943;-70
2021/12/13 03:05:40;;;;;;;;;;;4.10;99.90;;;;;;5066192;28;20216;-70
2021/12/13 03:08:08;;;;;;;;;;;4.10;99.90;;;;;;5066167;28;19927;-70
2021/12/13 03:10:39;;;;;;;;;;;4.10;99.90;;;;;;5066464;28;19921;-71
2021/12/13 03:13:05;;;;;;;;;;;4.00;99.90;;;;;;5066436;28;19963;-70
2021/12/13 03:15:34;;;;;;;;;;;4.00;99.90;;;;;;5084555;28;19920;-70
2021/12/13 03:18:06;;;;;;;;;;;4.10;99.90;;;;;;5085868;28;19924;-70
2021/12/13 03:20:38;;;;;;;;;;;4.10;99.90;;;;;;5086810;28;19921;-69
2021/12/13 03:23:18;;;;;;;;;;;4.00;99.90;;;;;;5086018;28;20279;-71
2021/12/13 03:26:03;;;;;;;;;;;4.00;99.90;;;;;;5085808;28;19924;-70
2021/12/13 03:28:39;;;;;;;;;;;4.00;99.90;;;;;;5071110;28;20124;-70
2021/12/13 03:31:09;;;;;;;;;;;4.00;99.90;;;;;;5085843;28;20226;-70
2021/12/13 03:33:41;;;;;;;;;;;4.00;99.90;;;;;;5078235;28;19920;-70
2021/12/13 03:36:08;;;;;;;;;;;4.00;99.90;;;;;;5065974;28;19921;-70
2021/12/13 03:38:37;;;;;;;;;;;4.00;99.90;;;;;;5073414;28;19943;-70
2021/12/13 03:41:05;;;;;;;;;;;4.10;99.90;;;;;;5084223;28;20103;-70
2021/12/13 03:43:35;;;;;;;;;;;4.10;99.90;;;;;;5073795;28;19920;-73
2021/12/13 03:46:03;;;;;;;;;;;4.10;99.90;;;;;;5065397;28;19921;-71
2021/12/13 03:48:31;;;;;;;;;;;4.10;99.90;;;;;;5065515;28;19921;-70
2021/12/13 03:51:01;;;;;;;;;;;4.10;99.90;;;;;;5065393;28;19921;-70
2021/12/13 03:53:29;;;;;;;;;;;4.00;99.90;;;;;;5065702;28;20101;-74
2021/12/13 03:56:01;;;;;;;;;;;4.00;99.90;;;;;;5077865;28;19921;-70
2021/12/13 03:58:30;;;;;;;;;;;4.00;99.90;;;;;;5085002;28;20216;-70
2021/12/13 04:00:59;;;;;;;;;;;4.00;99.90;;;;;;5079170;28;19921;-70
2021/12/13 04:03:27;;;;;;;;;;;4.00;99.90;;;;;;5065481;28;19963;-71
2021/12/13 04:05:55;;;;;;;;;;;4.00;99.90;;;;;;5065147;28;19928;-70
2021/12/13 04:08:23;;;;;;;;;;;4.00;99.90;;;;;;5065177;28;20119;-71
2021/12/13 04:10:53;;;;;;;;;;;4.00;99.90;;;;;;5065288;28;19921;-69
2021/12/13 04:13:23;;;;;;;;;;;4.10;99.90;;;;;;5065275;28;19927;-69
2021/12/13 04:16:00;;;;;;;;;;;4.10;99.90;;;;;;5064951;28;19927;-70
2021/12/13 04:18:40;;;;;;;;;;;4.10;99.90;;;;;;5073486;28;19920;-70
2021/12/13 04:21:08;;;;;;;;;;;4.10;99.90;;;;;;5085150;28;19928;-70
2021/12/13 04:23:36;;;;;;;;;;;4.10;99.90;;;;;;5084622;28;19920;-70
2021/12/13 04:26:05;;;;;;;;;;;4.10;99.90;;;;;;5084967;28;19921;-70
2021/12/13 04:28:34;;;;;;;;;;;4.10;99.90;;;;;;5083564;28;19920;-70
2021/12/13 04:31:02;;;;;;;;;;;4.10;99.90;;;;;;5065163;28;19928;-70
2021/12/13 04:33:32;;;;;;;;;;;4.10;99.90;;;;;;5084460;28;19921;-70
2021/12/13 04:36:01;;;;;;;;;;;4.10;99.90;;;;;;5072416;28;19932;-71
2021/12/13 04:38:32;;;;;;;;;;;4.10;99.90;;;;;;5076963;28;19921;-70
2021/12/13 04:41:00;;;;;;;;;;;4.10;99.90;;;;;;5064330;28;19987;-70
2021/12/13 04:43:26;;;;;;;;;;;4.10;99.90;;;;;;5072989;28;19921;-70
2021/12/13 04:45:55;;;;;;;;;;;4.10;99.90;;;;;;5079640;28;19921;-70
2021/12/13 04:48:23;;;;;;;;;;;4.10;99.90;;;;;;5083927;28;19928;-69
2021/12/13 04:50:52;;;;;;;;;;;4.10;99.90;;;;;;5084619;28;19946;-70
2021/12/13 04:53:21;;;;;;;;;;;4.20;99.90;;;;;;5084227;28;20219;-70
2021/12/13 04:55:49;;;;;;;;;;;4.20;99.90;;;;;;5083938;28;20211;-70
2021/12/13 04:58:18;;;;;;;;;;;4.20;99.90;;;;;;5072341;28;20115;-69
2021/12/13 05:00:47;;;;;;;;;;;4.20;99.90;;;;;;5083041;28;19921;-70
2021/12/13 05:03:15;;;;;;;;;;;4.20;99.90;;;;;;5081586;28;19920;-70
2021/12/13 05:05:42;;;;;;;;;;;4.20;99.90;;;;;;5082903;28;19925;-70
2021/12/13 05:08:13;;;;;;;;;;;4.20;99.90;;;;;;5083856;28;19920;-70
2021/12/13 05:10:40;;;;;;;;;;;4.10;99.90;;;;;;5072608;28;20234;-70
2021/12/13 05:13:11;;;;;;;;;;;4.10;99.90;;;;;;5064188;28;19928;-70
2021/12/13 05:15:39;;;;;;;;;;;4.10;99.90;;;;;;5064010;28;19979;-69
2021/12/13 05:18:06;;;;;;;;;;;4.10;99.90;;;;;;5083620;28;19920;-70
2021/12/13 05:20:35;;;;;;;;;;;4.00;99.90;;;;;;5083316;28;19921;-70
2021/12/13 05:23:04;;;;;;;;;;;4.10;99.90;;;;;;5067452;28;19920;-70
2021/12/13 05:25:31;;;;;;;;;;;4.10;99.90;;;;;;5083968;28;19924;-70
2021/12/13 05:28:00;;;;;;;;;;;4.10;99.90;;;;;;5084188;28;19921;-70
2021/12/13 05:30:28;;;;;;;;;;;4.10;99.90;;;;;;5083745;28;20132;-70
2021/12/13 05:32:57;;;;;;;;;;;4.20;99.90;;;;;;5083808;28;20216;-69
2021/12/13 05:35:25;;;;;;;;;;;4.20;99.90;;;;;;5083992;28;19920;-69
2021/12/13 05:37:54;;;;;;;;;;;4.20;99.90;;;;;;5083828;28;20196;-70
2021/12/13 05:40:22;;;;;;;;;;;4.20;99.90;;;;;;5084015;28;19927;-71
2021/12/13 05:42:51;;;;;;;;;;;4.20;99.90;;;;;;5084000;28;19924;-70
2021/12/13 05:45:18;;;;;;;;;;;4.20;99.90;;;;;;5083662;28;19920;-70
2021/12/13 05:47:58;;;;;;;;;;;4.20;99.90;;;;;;5084036;28;19924;-70
2021/12/13 05:50:32;;;;;;;;;;;4.20;99.90;;;;;;5083922;28;19928;-69
2021/12/13 05:53:01;;;;;;;;;;;4.20;99.90;;;;;;5083594;28;19921;-71
2021/12/13 05:55:28;;;;;;;;;;;4.20;99.90;;;;;;5083583;28;19927;-69
2021/12/13 05:57:54;;;;;;;;;;;4.20;99.90;;;;;;5075615;28;19924;-70
2021/12/13 06:00:23;;;;;;;;;;;4.20;99.90;;;;;;5084494;28;19927;-70
2021/12/13 06:03:00;;;;;;;;;;;4.20;99.90;;;;;;5087814;28;19933;-71
2021/12/13 06:05:28;;;;;;;;;;;4.20;99.90;;;;;;5087655;28;20108;-70
2021/12/13 06:07:56;;;;;;;;;;;4.30;99.90;;;;;;5087682;28;19920;-71
2021/12/13 06:10:26;;;;;;;;;;;4.20;99.90;;;;;;5067329;28;19927;-68
2021/12/13 06:12:54;;;;;;;;;;;4.20;99.90;;;;;;5067531;28;19927;-69
2021/12/13 06:15:27;;;;;;;;;;;4.20;99.90;;;;;;5066677;28;20286;-70
2021/12/13 06:17:57;;;;;;;;;;;4.20;99.90;;;;;;5067314;28;19920;-70
2021/12/13 06:20:27;;;;;;;;;;;4.20;99.90;;;;;;5067623;28;19921;-70
2021/12/13 06:23:02;;;;;;;;;;;4.20;99.90;;;;;;5067705;28;19921;-71
2021/12/13 06:25:29;;;;;;;;;;;4.20;99.90;;;;;;5067203;28;19921;-70
2021/12/13 06:27:59;;;;;;;;;;;4.20;99.90;;;;;;5067189;28;19927;-71
2021/12/13 06:30:27;;;;;;;;;;;4.20;99.90;;;;;;5067252;28;19963;-71
2021/12/13 06:32:57;;;;;;;;;;;4.30;99.90;;;;;;5066854;28;19924;-71
2021/12/13 06:35:43;;;;;;;;;;;4.20;99.90;;;;;;5066962;28;20042;-70
2021/12/13 06:38:29;;;;;;;;;;;4.20;99.90;;;;;;5073758;22;19921;-70
2021/12/13 06:40:56;;;;;;;;;;;4.30;99.90;;;;;;5066297;28;19920;-72
2021/12/13 06:43:27;;;;;;;;;;;4.30;99.90;;;;;;5065509;28;19921;-72
2021/12/13 06:45:53;;;;;;;;;;;4.30;99.90;;;;;;5066264;28;19928;-72
2021/12/13 06:48:32;;;;;;;;;;;4.30;99.90;;;;;;5066440;28;19928;-72
2021/12/13 06:51:00;;;;;;;;;;;4.30;99.90;;;;;;5066410;28;19984;-72
2021/12/13 06:53:27;;;;;;;;;;;4.30;99.90;;;;;;5066649;28;19946;-71
2021/12/13 06:55:53;;;;;;;;;;;4.30;99.90;;;;;;5066278;28;19943;-72
2021/12/13 06:58:21;;;;;;;;;;;4.20;99.90;;;;;;5065833;28;20208;-72
2021/12/13 07:00:50;;;;;;;;;;;4.20;99.90;;;;;;5066123;28;19986;-72
2021/12/13 07:03:19;;;;;;;;;;;4.20;99.90;;;;;;5066250;28;19920;-70
2021/12/13 07:05:48;;;;;;;;;;;4.30;99.90;;;;;;5058850;28;19992;-72
2021/12/13 07:08:20;;;;;;;;;;;4.30;99.90;;;;;;5060099;28;19932;-69
2021/12/13 07:10:55;;;;;;;;;;;4.30;99.90;;;;;;5063900;28;19925;-71
2021/12/13 07:13:25;;;;;;;;;;;4.30;99.90;;;;;;5044298;28;20231;-76
2021/12/13 07:15:57;;;;;;;;;;;4.40;99.90;;;;;;5044005;28;19988;-70
2021/12/13 07:18:29;;;;;;;;;;;4.40;99.90;;;;;;5062118;28;20212;-70
2021/12/13 07:20:58;;;;;;;;;;;4.40;99.90;;;;;;5064794;28;20212;-70
2021/12/13 07:23:26;;;;;;;;;;;4.40;99.90;;;;;;5064898;28;19963;-69
2021/12/13 07:25:54;;;;;;;;;;;4.40;99.90;;;;;;5065294;28;19936;-71
2021/12/13 07:28:29;;;;;;;;;;;4.40;99.90;;;;;;5065297;28;20350;-71
2021/12/13 07:30:56;;;;;;;;;;;4.40;99.90;;;;;;5065381;28;20097;-70
2021/12/13 07:33:32;;;;;;;;;;;4.40;99.90;;;;;;5055245;28;19921;-69
2021/12/13 07:35:59;;;;;;;;;;;4.40;99.90;;;;;;5045214;28;19921;-70
2021/12/13 07:38:28;;;;;;;;;;;4.50;99.90;;;;;;5060053;28;19938;-70
2021/12/13 07:40:57;;;;;;;;;;;4.50;99.90;;;;;;5045191;28;19944;-71
2021/12/13 07:43:26;;;;;;;;;;;4.50;99.90;;;;;;5045257;28;19921;-71
2021/12/13 07:45:58;;;;;;;;;;;4.50;99.90;;;;;;5044917;28;19967;-70
2021/12/13 07:48:26;;;;;;;;;;;4.50;99.90;;;;;;5061661;28;19920;-71
2021/12/13 07:51:02;;;;;;;;;;;4.50;99.90;;;;;;5065155;28;19924;-70
2021/12/13 07:53:37;;;;;;;;;;;4.50;99.90;;;;;;5063395;28;20201;-71
2021/12/13 07:56:05;;;;;;;;;;;4.50;99.90;;;;;;5063534;28;19943;-70
2021/12/13 07:58:34;;;;;;;;;;;4.60;99.90;;;;;;5062978;28;20120;-70
2021/12/13 08:01:08;;;;;;;;;;;4.60;99.90;;;;;;5064084;28;19921;-71
2021/12/13 08:03:34;;;;;;;;;;;4.60;99.90;;;;;;5059764;28;20146;-71
2021/12/13 08:06:06;;;;;;;;;;;4.60;99.90;;;;;;5044944;28;19927;-71
2021/12/13 08:08:35;;;;;;;;;;;4.60;99.90;;;;;;5062021;28;20112;-70
2021/12/13 08:11:02;;;;;;;;;;;4.60;99.90;;;;;;5064687;28;19960;-71
2021/12/13 08:13:31;;;;;;;;;;;4.60;99.90;;;;;;5064295;28;19928;-68
2021/12/13 08:16:00;;;;;;;;;;;4.50;99.90;;;;;;5064513;28;19928;-71
2021/12/13 08:18:30;;;;;;;;;;;4.60;99.90;;;;;;5064301;28;19924;-70
2021/12/13 08:20:58;;;;;;;;;;;4.60;99.90;;;;;;5064068;28;19920;-71
2021/12/13 08:23:27;;;;;;;;;;;4.50;99.90;;;;;;5063851;28;19928;-69
2021/12/13 08:25:57;;;;;;;;;;;4.60;99.90;;;;;;5064100;28;20115;-71
2021/12/13 08:28:32;;;;;;;;;;;4.60;99.90;;;;;;5064277;28;19920;-71
2021/12/13 08:30:59;;;;;;;;;;;4.60;99.90;;;;;;5064368;28;19921;-71
2021/12/13 08:33:31;;;;;;;;;;;4.60;99.90;;;;;;5064036;28;19934;-70
2021/12/13 08:36:00;;;;;;;;;;;4.60;99.90;;;;;;5064133;28;19927;-71
2021/12/13 08:38:29;;;;;;;;;;;4.60;99.90;;;;;;5063663;28;19935;-71
2021/12/13 08:40:59;;;;;;;;;;;4.60;99.90;;;;;;5059364;28;19921;-70
2021/12/13 08:43:33;;;;;;;;;;;4.60;99.90;;;;;;5063804;28;19921;-70
2021/12/13 08:45:59;;;;;;;;;;;4.60;99.90;;;;;;5063966;28;20266;-71
2021/12/13 08:48:27;;;;;;;;;;;4.70;99.90;;;;;;5048261;28;19921;-71
2021/12/13 08:50:56;;;;;;;;;;;4.70;99.90;;;;;;5044264;28;19995;-71
2021/12/13 08:53:25;;;;;;;;;;;4.70;99.90;;;;;;5044144;28;19921;-72
2021/12/13 08:55:53;;;;;;;;;;;4.80;99.90;;;;;;5043748;28;19925;-70
2021/12/13 08:58:22;;;;;;;;;;;4.80;99.90;;;;;;5043914;28;19921;-71
2021/12/13 09:00:51;;;;;;;;;;;4.80;99.90;;;;;;5046556;28;19921;-71
2021/12/13 09:03:24;;;;;;;;;;;4.80;99.90;;;;;;5063636;28;20230;-72
2021/12/13 09:05:52;;;;;;;;;;;4.80;99.90;;;;;;5064010;28;19921;-71
2021/12/13 09:08:24;;;;;;;;;;;4.80;99.90;;;;;;5063822;28;19921;-72
2021/12/13 09:10:52;;;;;;;;;;;4.90;99.90;;;;;;5063941;28;19959;-72
2021/12/13 09:13:20;;;;;;;;;;;4.90;99.90;;;;;;5063822;28;19920;-71
2021/12/13 09:15:49;;;;;;;;;;;4.90;99.90;;;;;;5063415;28;19928;-71
2021/12/13 09:18:19;;;;;;;;;;;5.00;99.90;;;;;;5063439;28;19921;-72
2021/12/13 09:20:48;;;;;;;;;;;5.00;99.90;;;;;;5063232;28;20226;-72
2021/12/13 09:23:16;;;;;;;;;;;5.00;99.90;;;;;;5063565;28;19995;-71
2021/12/13 09:25:45;;;;;;;;;;;5.00;99.90;;;;;;5063409;28;19921;-71
2021/12/13 09:28:13;;;;;;;;;;;5.00;99.90;;;;;;5063575;28;19920;-71
2021/12/13 09:30:41;;;;;;;;;;;5.00;99.90;;;;;;5063193;28;19920;-72
2021/12/13 09:33:12;;;;;;;;;;;5.10;99.90;;;;;;5063244;28;19921;-71
2021/12/13 09:35:41;;;;;;;;;;;5.10;99.90;;;;;;5062917;28;19927;-70
2021/12/13 09:38:23;;;;;;;;;;;5.10;99.90;;;;;;5062916;28;19927;-72
2021/12/13 09:40:52;;;;;;;;;;;5.10;99.90;;;;;;5063247;28;19921;-71
2021/12/13 09:43:19;;;;;;;;;;;5.20;99.90;;;;;;5063025;28;19921;-70
2021/12/13 09:45:48;;;;;;;;;;;5.10;99.90;;;;;;5062849;28;20226;-72
2021/12/13 09:48:20;;;;;;;;;;;5.20;99.90;;;;;;5062926;28;20361;-71
2021/12/13 09:50:49;;;;;;;;;;;5.20;99.90;;;;;;5063281;28;19925;-71
2021/12/13 09:53:16;;;;;;;;;;;5.20;99.90;;;;;;5062941;28;19920;-71
2021/12/13 09:55:47;;;;;;;;;;;5.20;99.90;;;;;;5055016;28;19921;-71
2021/12/13 09:58:15;;;;;;;;;;;5.20;99.90;;;;;;5061196;28;19942;-71
2021/12/13 10:00:44;;;;;;;;;;;5.30;99.90;;;;;;5061908;28;19921;-71
2021/12/13 10:03:12;;;;;;;;;;;5.30;99.90;;;;;;5059921;28;20212;-72
2021/12/13 10:05:42;;;;;;;;;;;5.30;99.90;;;;;;5056667;28;19985;-72
2021/12/13 10:08:13;;;;;;;;;;;5.40;99.90;;;;;;5064142;28;20399;-72
2021/12/13 10:10:42;;;;;;;;;;;5.40;99.90;;;;;;5063420;28;19927;-72
2021/12/13 10:13:10;;;;;;;;;;;5.40;99.90;;;;;;5063111;28;19921;-72
2021/12/13 10:15:39;;;;;;;;;;;5.40;99.90;;;;;;5062786;28;19928;-72
2021/12/13 10:18:08;;;;;;;;;;;5.40;99.90;;;;;;5062883;28;19921;-72
2021/12/13 10:20:37;;;;;;;;;;;5.40;99.90;;;;;;5062903;28;19928;-72
2021/12/13 10:23:06;;;;;;;;;;;5.50;99.90;;;;;;5055656;28;19992;-72
2021/12/13 10:25:33;;;;;;;;;;;5.50;99.90;;;;;;5049434;28;19935;-71
2021/12/13 10:28:00;;;;;;;;;;;5.60;99.90;;;;;;5062301;28;19921;-72
2021/12/13 10:30:29;;;;;;;;;;;5.60;99.90;;;;;;5057161;28;19928;-72
2021/12/13 10:32:56;;;;;;;;;;;5.60;99.90;;;;;;5058013;28;19921;-72
2021/12/13 10:35:25;;;;;;;;;;;5.60;99.90;;;;;;5062745;28;19920;-73
2021/12/13 10:37:53;;;;;;;;;;;5.70;99.90;;;;;;5062575;28;19921;-72
2021/12/13 10:40:23;;;;;;;;;;;5.80;99.90;;;;;;5062849;28;20115;-72
2021/12/13 10:42:52;;;;;;;;;;;5.80;99.90;;;;;;5062792;28;19927;-72
2021/12/13 10:45:20;;;;;;;;;;;5.80;99.90;;;;;;5063570;28;20208;-72
2021/12/13 10:47:48;;;;;;;;;;;5.80;99.90;;;;;;5066134;28;19928;-71
2021/12/13 10:50:16;;;;;;;;;;;5.90;99.90;;;;;;5066446;28;19927;-71
2021/12/13 10:52:48;;;;;;;;;;;5.90;99.90;;;;;;5066362;28;19927;-71
2021/12/13 10:55:17;;;;;;;;;;;5.90;99.90;;;;;;5066086;28;19928;-72
2021/12/13 10:57:48;;;;;;;;;;;6.00;99.90;;;;;;5046250;28;19921;-72
2021/12/13 11:00:16;;;;;;;;;;;6.00;99.90;;;;;;5046271;28;19964;-70
2021/12/13 11:02:43;;;;;;;;;;;6.10;99.90;;;;;;5045761;28;19921;-70
2021/12/13 11:05:11;;;;;;;;;;;6.10;99.90;;;;;;5062401;28;20283;-72
2021/12/13 11:07:38;;;;;;;;;;;6.10;99.90;;;;;;5065741;28;19927;-72
2021/12/13 11:10:05;;;;;;;;;;;6.10;99.90;;;;;;5066024;28;19928;-73
2021/12/13 11:12:33;;;;;;;;;;;6.10;99.90;;;;;;5065935;28;19984;-72
2021/12/13 11:15:04;;;;;;;;;;;6.10;99.90;;;;;;5065696;28;19921;-72
2021/12/13 11:17:32;;;;;;;;;;;6.20;99.90;;;;;;5065822;28;19924;-72
2021/12/13 11:20:04;;;;;;;;;;;6.20;99.90;;;;;;5065853;28;20112;-72
2021/12/13 11:22:32;;;;;;;;;;;6.20;99.90;;;;;;5065467;28;19943;-72
2021/12/13 11:25:00;;;;;;;;;;;6.30;99.90;;;;;;5061162;28;19943;-72
2021/12/13 11:27:31;;;;;;;;;;;6.40;99.90;;;;;;5065416;28;20231;-73
2021/12/13 11:29:58;;;;;;;;;;;6.40;99.90;;;;;;5065487;28;19921;-72
2021/12/13 11:32:39;;;;;;;;;;;6.40;99.90;;;;;;5065658;28;19921;-72
2021/12/13 11:35:25;;;;;;;;;;;6.40;99.90;;;;;;5065462;28;19927;-71
2021/12/13 11:38:00;;;;;;;;;;;6.40;99.90;;;;;;5058669;28;19921;-72
2021/12/13 11:40:42;;;;;;;;;;;6.40;99.90;;;;;;5061387;28;20112;-72
2021/12/13 11:43:14;;;;;;;;;;;6.40;99.90;;;;;;5065553;28;19921;-72
2021/12/13 11:45:51;;;;;;;;;;;6.40;99.90;;;;;;5065118;28;19924;-72
2021/12/13 11:48:36;;;;;;;;;;;6.40;99.90;;;;;;5065122;28;19921;-72
2021/12/13 11:51:21;;;;;;;;;;;6.50;99.90;;;;;;5049572;28;19921;-72
2021/12/13 11:54:13;;;;;;;;;;;6.50;99.90;;;;;;5044811;28;19921;-72
2021/12/13 11:57:10;;;;;;;;;;;6.50;99.90;;;;;;5044301;28;19929;-72
2021/12/13 11:59:45;;;;;;;;;;;6.50;99.90;;;;;;4984036;28;19922;-70
2021/12/13 12:02:16;;;;;;;;;;;6.50;99.90;;;;;;5033966;28;20094;-72
2021/12/13 12:05:09;;;;;;;;;;;6.50;99.90;;;;;;5045022;28;19921;-72
2021/12/13 12:07:46;;;;;;;;;;;6.50;99.90;;;;;;5044970;28;19927;-72
2021/12/13 12:10:21;;;;;;;;;;;6.50;99.90;;;;;;5050043;28;19920;-71
2021/12/13 12:12:55;;;;;;;;;;;6.60;99.90;;;;;;5064977;28;19928;-72
2021/12/13 12:15:23;;;;;;;;;;;6.50;99.90;;;;;;5064365;28;19921;-72
2021/12/13 12:17:50;;;;;;;;;;;6.60;99.90;;;;;;5064514;28;19927;-72
2021/12/13 12:20:19;;;;;;;;;;;6.60;99.90;;;;;;5064564;28;19925;-70
2021/12/13 12:22:49;;;;;;;;;;;6.60;99.90;;;;;;5055718;28;19928;-72
2021/12/13 12:25:17;;;;;;;;;;;6.70;99.90;;;;;;5060657;28;19962;-72
2021/12/13 12:27:45;;;;;;;;;;;6.60;99.90;;;;;;5064371;28;19924;-72
2021/12/13 12:30:13;;;;;;;;;;;6.70;99.90;;;;;;5061159;28;19921;-71
2021/12/13 12:32:41;;;;;;;;;;;6.70;99.90;;;;;;5064110;28;19927;-72
2021/12/13 12:35:11;;;;;;;;;;;6.80;99.90;;;;;;5062776;28;19929;-71
2021/12/13 12:37:52;;;;;;;;;;;6.70;99.90;;;;;;5063909;28;19921;-72
2021/12/13 12:40:23;;;;;;;;;;;6.80;99.90;;;;;;5061189;28;19956;-72
2021/12/13 12:42:52;;;;;;;;;;;6.80;99.90;;;;;;5064386;28;19927;-72
2021/12/13 12:45:21;;;;;;;;;;;6.80;99.90;;;;;;5048163;28;20169;-72
2021/12/13 12:48:02;;;;;;;;;;;6.80;99.90;;;;;;5056010;28;19935;-72
2021/12/13 12:50:32;;;;;;;;;;;6.80;99.90;;;;;;5083708;23;19921;-72
2021/12/13 12:53:00;;;;;;;;;;;6.80;99.90;;;;;;5064036;28;20112;-72
2021/12/13 12:55:29;;;;;;;;;;;6.90;99.90;;;;;;5064300;28;19921;-75
2021/12/13 12:57:58;;;;;;;;;;;6.90;99.90;;;;;;5064563;28;19921;-74
2021/12/13 13:00:26;;;;;;;;;;;6.90;99.90;;;;;;5062675;28;20088;-74
2021/12/13 13:02:53;;;;;;;;;;;6.90;99.90;;;;;;5047642;28;19921;-74
2021/12/13 13:05:20;;;;;;;;;;;6.90;99.90;;;;;;5045135;28;19933;-74
2021/12/13 13:07:52;;;;;;;;;;;6.90;99.90;;;;;;5062618;28;19990;-75
2021/12/13 13:10:21;;;;;;;;;;;6.90;99.90;;;;;;5060762;28;19920;-75
2021/12/13 13:12:48;;;;;;;;;;;6.90;99.90;;;;;;5055697;28;19921;-73
2021/12/13 13:15:20;;;;;;;;;;;6.90;99.90;;;;;;5063839;28;19928;-74
2021/12/13 13:17:48;;;;;;;;;;;6.90;99.90;;;;;;5062487;28;19925;-74
2021/12/13 13:20:18;;;;;;;;;;;7.00;99.90;;;;;;5064005;28;19984;-75
2021/12/13 13:22:46;;;;;;;;;;;6.90;99.90;;;;;;5063638;28;20434;-74
2021/12/13 13:25:16;;;;;;;;;;;6.90;99.90;;;;;;5064031;28;19921;-75
2021/12/13 13:27:43;;;;;;;;;;;6.90;99.90;;;;;;5062827;28;19925;-74
2021/12/13 13:30:12;;;;;;;;;;;6.90;99.90;;;;;;5052319;28;20208;-74
2021/12/13 13:32:40;;;;;;;;;;;6.90;99.90;;;;;;5063334;28;20180;-75
2021/12/13 13:35:07;;;;;;;;;;;6.90;99.90;;;;;;5063300;28;19920;-75
2021/12/13 13:37:37;;;;;;;;;;;6.90;99.90;;;;;;5063818;28;19927;-74
2021/12/13 13:40:06;;;;;;;;;;;6.90;99.90;;;;;;5049598;28;20230;-75
2021/12/13 13:42:34;;;;;;;;;;;6.90;99.90;;;;;;5048324;28;19921;-75
2021/12/13 13:45:05;;;;;;;;;;;6.90;99.90;;;;;;5059475;28;19937;-75
2021/12/13 13:47:33;;;;;;;;;;;6.90;99.90;;;;;;5063928;28;20298;-75
2021/12/13 13:50:17;;;;;;;;;;;6.90;99.90;;;;;;5062212;28;19943;-75
2021/12/13 13:52:45;;;;;;;;;;;6.90;99.90;;;;;;5061056;28;19951;-75
2021/12/13 13:55:19;;;;;;;;;;;6.90;99.90;;;;;;5063372;28;19924;-75
2021/12/13 13:57:48;;;;;;;;;;;7.00;99.90;;;;;;5063099;28;20176;-75
2021/12/13 14:00:15;;;;;;;;;;;7.00;99.90;;;;;;5063105;28;19987;-74
2021/12/13 14:02:42;;;;;;;;;;;7.00;99.90;;;;;;5062024;28;19921;-74
2021/12/13 14:05:13;;;;;;;;;;;6.90;99.90;;;;;;5059818;28;19928;-75
2021/12/13 14:07:41;;;;;;;;;;;6.90;99.90;;;;;;5063359;28;20286;-75
2021/12/13 14:10:09;;;;;;;;;;;6.90;99.90;;;;;;5063475;28;19924;-75
2021/12/13 14:12:37;;;;;;;;;;;6.90;99.90;;;;;;5060215;28;19921;-75
2021/12/13 14:15:07;;;;;;;;;;;6.90;99.90;;;;;;5061770;28;19920;-74
2021/12/13 14:17:35;;;;;;;;;;;6.90;99.90;;;;;;5063519;28;19927;-74
2021/12/13 14:20:06;;;;;;;;;;;6.90;99.90;;;;;;5064190;28;19921;-74
2021/12/13 14:22:34;;;;;;;;;;;6.90;99.90;;;;;;5067370;28;19928;-74
2021/12/13 14:25:01;;;;;;;;;;;7.00;99.90;;;;;;5066609;28;19925;-74
2021/12/13 14:27:35;;;;;;;;;;;7.00;99.90;;;;;;5064728;28;19993;-74
2021/12/13 14:30:09;;;;;;;;;;;7.00;99.90;;;;;;5062361;28;19921;-74
2021/12/13 14:32:36;;;;;;;;;;;7.00;99.90;;;;;;5064225;28;19921;-75
2021/12/13 14:35:11;;;;;;;;;;;6.90;99.90;;;;;;5066011;28;20231;-73
2021/12/13 14:37:39;;;;;;;;;;;6.90;99.90;;;;;;5064750;28;19925;-75
2021/12/13 14:40:06;;;;;;;;;;;6.90;99.90;;;;;;5046237;28;19927;-75
2021/12/13 14:42:35;;;;;;;;;;;6.90;99.90;;;;;;5046988;28;19921;-74
2021/12/13 14:45:04;;;;;;;;;;;6.90;99.90;;;;;;5045916;28;19921;-75
2021/12/13 14:47:34;;;;;;;;;;;6.90;99.90;;;;;;5046987;28;19921;-75
2021/12/13 14:50:03;;;;;;;;;;;6.90;99.90;;;;;;5044288;28;19921;-75
2021/12/13 14:52:31;;;;;;;;;;;6.90;99.90;;;;;;5046590;28;19976;-75
2021/12/13 14:55:00;;;;;;;;;;;6.90;99.90;;;;;;5046119;28;19928;-75